Terminal Aerodrome Forecast
Issued by NWS

Home | Current Version | Previous Version | Text Only | Print | Product List | Glossary On
Versions: 1 2 3 4 5 6 7 8 9 10 11 12 13 14
000
FTUS46 KMTR 222334
TAFSTS
TAF
KSTS 222334Z 2300/2324 21010KT P6SM SKC
     FM230300 16005KT P6SM SKC
      TEMPO 2310/2314 1/4SM FG VV002
     FM231600 16005KT P6SM SKC
     FM231900 20010KT P6SM SKC=

USA.gov is the U.S. government's official web portal to all federal, state and local government web resources and services.